Valley City, ND

4:07 PM CDT on August 27, 2014 (GMT -0500)
Cooperstown | Change Station
CLOSE
Current Station
Airport
Location: Cooperstown,
Elevation: 1424 ft
Nearby Weather Stations

Elev 1424 ft 47.42 °N, 98.11 °W | Updated 65 days ago

Partly Cloudy
Partly Cloudy
70 °F
Feels Like 70 °F
N
6
Wind Variable Wind from SE
Gusts 8 mph

Today
High -- | Low -- °F
--% Chance of Precip.
Yesterday
High -- | Low -- °F
Precip. -- in
6:45 AM 8:20 PM
Waxing Crescent, 5% visible
Pressure 29.89 in
Visibility 10.0 miles
Clouds Few 4400 ft
Dew Point 59 °F
Humidity 70%
Rainfall 0.00 in
Snow Depth Not available.
UV 9 out of 12
Pollen 10.00 out of 12
Air Quality Not available.
Flu Activity Not available.
METAR KS32 232035Z AUTO 30011KT 10SM FEW044 23/15 A2989 RMK AO2

More Conditions Fewer Conditions

Pressure 29.89 in
Visibility 10.0 miles
Clouds Few 4400 ft
Dew Point 59 °F
Humidity 70%
Rainfall 0.00 in
Snow Depth Not available.
UV 9 out of 12
Pollen 10.00 out of 12
Air Quality Not available.
Flu Activity Not available.
METAR KS32 232035Z AUTO 30011KT 10SM FEW044 23/15 A2989 RMK AO2

More Conditions Fewer Conditions

10-Day Weather Forecast

Almanac

Astronomy

Aug. 27, 2014 Rise Set
Actual Time 6:45 AM CDT 8:20 PM CDT
Civil Twilight 6:13 AM CDT 8:52 PM CDT
Nautical Twilight 5:34 AM CDT 9:31 PM CDT
Astronomical Twilight 4:51 AM CDT 10:13 PM CDT
Moon 8:52 AM CDT 9:01 PM CDT
Length of Visible Light 14h 39m
Length of Day
13h 35m
Tomorrow will be 3m 11s shorter.
Waxing Crescent, 5% of the Moon is Illuminated
Today
Waxing Crescent
Sep 2
First Quarter
Sep 8
Full
Sep 15
Last Quarter
Sep 24
New

Today's Extremes

State Highs State Lows

Community

WunderPhotos

Upload Photos

1,747,785 photos uploaded!

Nearby

Snow Depth

Station Depth Elevation
No new snow has been reported.

Earthquake Activity

City Distance Mag. Time & Date
No recent earthquake activity has been reported nearby.
Minimum magnitude displayed is 2.5.

Coastal Water Temperatures

Place Temperature
No Stations Reporting

Nearby Weather Stations